sensor_id;sensor_type;location;lat;lon;timestamp;pressure;altitude;pressure_sealevel;temperature;humidity
42169;BME280;27838;43.858;25.974;2023-02-04T00:00:07;100881.63;;;7.21;52.50
42169;BME280;27838;43.858;25.974;2023-02-04T00:02:35;100872.81;;;7.11;53.80
42169;BME280;27838;43.858;25.974;2023-02-04T00:05:02;100866.47;;;6.92;54.46
42169;BME280;27838;43.858;25.974;2023-02-04T00:07:29;100858.44;;;6.76;55.15
42169;BME280;27838;43.858;25.974;2023-02-04T00:09:55;100871.56;;;6.86;56.11
42169;BME280;27838;43.858;25.974;2023-02-04T00:12:22;100866.25;;;6.78;56.00
42169;BME280;27838;43.858;25.974;2023-02-04T00:14:48;100857.63;;;6.79;56.70
42169;BME280;27838;43.858;25.974;2023-02-04T00:17:15;100847.22;;;6.77;57.32
42169;BME280;27838;43.858;25.974;2023-02-04T00:19:42;100848.81;;;6.69;56.73
42169;BME280;27838;43.858;25.974;2023-02-04T00:22:08;100838.31;;;6.61;58.12
42169;BME280;27838;43.858;25.974;2023-02-04T00:24:35;100836.34;;;6.50;58.25
42169;BME280;27838;43.858;25.974;2023-02-04T00:27:04;100831.78;;;6.35;59.30
42169;BME280;27838;43.858;25.974;2023-02-04T00:29:31;100825.69;;;6.31;59.74
42169;BME280;27838;43.858;25.974;2023-02-04T00:31:57;100827.22;;;6.23;60.29
42169;BME280;27838;43.858;25.974;2023-02-04T00:34:24;100828.63;;;6.05;60.27
42169;BME280;27838;43.858;25.974;2023-02-04T00:36:50;100825.13;;;6.03;60.81
42169;BME280;27838;43.858;25.974;2023-02-04T00:39:17;100813.81;;;5.98;61.50
42169;BME280;27838;43.858;25.974;2023-02-04T00:41:43;100815.44;;;5.95;61.72
42169;BME280;27838;43.858;25.974;2023-02-04T00:44:10;100805.09;;;5.95;61.80
42169;BME280;27838;43.858;25.974;2023-02-04T00:46:38;100806.22;;;6.08;60.92
42169;BME280;27838;43.858;25.974;2023-02-04T00:49:05;100794.31;;;6.16;61.50
42169;BME280;27838;43.858;25.974;2023-02-04T00:51:36;100796.06;;;6.18;60.91
42169;BME280;27838;43.858;25.974;2023-02-04T00:54:02;100784.75;;;6.13;61.26
42169;BME280;27838;43.858;25.974;2023-02-04T00:56:29;100781.19;;;6.05;61.70
42169;BME280;27838;43.858;25.974;2023-02-04T00:58:56;100779.31;;;5.98;61.79
42169;BME280;27838;43.858;25.974;2023-02-04T01:01:22;100774.19;;;6.01;61.90
42169;BME280;27838;43.858;25.974;2023-02-04T01:03:49;100766.47;;;6.04;62.20
42169;BME280;27838;43.858;25.974;2023-02-04T01:06:15;100765.75;;;6.11;62.23
42169;BME280;27838;43.858;25.974;2023-02-04T01:08:42;100755.53;;;6.17;61.54
42169;BME280;27838;43.858;25.974;2023-02-04T01:11:08;100755.56;;;6.19;61.77
42169;BME280;27838;43.858;25.974;2023-02-04T01:13:35;100751.72;;;5.98;61.76
42169;BME280;27838;43.858;25.974;2023-02-04T01:16:01;100747.28;;;5.93;62.63
42169;BME280;27838;43.858;25.974;2023-02-04T01:18:28;100737.56;;;5.81;62.97
42169;BME280;27838;43.858;25.974;2023-02-04T01:20:54;100740.91;;;5.75;63.32
42169;BME280;27838;43.858;25.974;2023-02-04T01:23:21;100727.00;;;5.70;63.19
42169;BME280;27838;43.858;25.974;2023-02-04T01:25:47;100717.41;;;5.64;63.57
42169;BME280;27838;43.858;25.974;2023-02-04T01:28:14;100710.41;;;5.60;63.77
42169;BME280;27838;43.858;25.974;2023-02-04T01:30:40;100709.28;;;5.46;64.20
42169;BME280;27838;43.858;25.974;2023-02-04T01:33:07;100702.38;;;5.46;64.65
42169;BME280;27838;43.858;25.974;2023-02-04T01:35:33;100696.53;;;5.55;64.71
42169;BME280;27838;43.858;25.974;2023-02-04T01:38:00;100692.03;;;5.46;64.74
42169;BME280;27838;43.858;25.974;2023-02-04T01:40:26;100685.75;;;5.34;65.06
42169;BME280;27838;43.858;25.974;2023-02-04T01:42:53;100680.72;;;5.41;65.28
42169;BME280;27838;43.858;25.974;2023-02-04T01:45:20;100671.34;;;5.46;65.38
42169;BME280;27838;43.858;25.974;2023-02-04T01:47:46;100664.75;;;5.62;65.55
42169;BME280;27838;43.858;25.974;2023-02-04T01:50:15;100663.16;;;5.69;64.88
42169;BME280;27838;43.858;25.974;2023-02-04T01:52:43;100651.09;;;5.68;64.98
42169;BME280;27838;43.858;25.974;2023-02-04T01:55:16;100656.22;;;5.65;65.38
42169;BME280;27838;43.858;25.974;2023-02-04T01:57:43;100645.78;;;5.60;65.67
42169;BME280;27838;43.858;25.974;2023-02-04T02:00:21;100647.75;;;5.74;65.29
42169;BME280;27838;43.858;25.974;2023-02-04T02:02:50;100637.47;;;5.78;65.14
42169;BME280;27838;43.858;25.974;2023-02-04T02:05:21;100641.94;;;5.85;65.40
42169;BME280;27838;43.858;25.974;2023-02-04T02:07:50;100639.38;;;5.89;64.72
42169;BME280;27838;43.858;25.974;2023-02-04T02:10:18;100622.19;;;5.92;65.22
42169;BME280;27838;43.858;25.974;2023-02-04T02:12:45;100617.28;;;6.06;64.97
42169;BME280;27838;43.858;25.974;2023-02-04T02:15:13;100616.50;;;6.09;64.36
42169;BME280;27838;43.858;25.974;2023-02-04T02:17:40;100616.44;;;6.05;64.34
42169;BME280;27838;43.858;25.974;2023-02-04T02:20:09;100603.38;;;5.98;65.08
42169;BME280;27838;43.858;25.974;2023-02-04T02:22:51;100608.31;;;5.85;65.60
42169;BME280;27838;43.858;25.974;2023-02-04T02:25:21;100595.88;;;5.66;65.71
42169;BME280;27838;43.858;25.974;2023-02-04T02:27:47;100607.00;;;5.62;66.04
42169;BME280;27838;43.858;25.974;2023-02-04T02:30:15;100611.22;;;5.57;65.87
42169;BME280;27838;43.858;25.974;2023-02-04T02:32:45;100605.22;;;5.58;66.67
42169;BME280;27838;43.858;25.974;2023-02-04T02:35:13;100597.56;;;5.64;66.00
42169;BME280;27838;43.858;25.974;2023-02-04T02:37:40;100596.78;;;5.66;66.24
42169;BME280;27838;43.858;25.974;2023-02-04T02:40:07;100588.16;;;5.67;66.52
42169;BME280;27838;43.858;25.974;2023-02-04T02:42:35;100570.84;;;5.63;66.61
42169;BME280;27838;43.858;25.974;2023-02-04T02:45:15;100582.25;;;5.76;65.74
42169;BME280;27838;43.858;25.974;2023-02-04T02:47:43;100583.88;;;5.68;65.87
42169;BME280;27838;43.858;25.974;2023-02-04T02:50:14;100563.31;;;5.77;66.10
42169;BME280;27838;43.858;25.974;2023-02-04T02:52:41;100559.91;;;5.80;65.50
42169;BME280;27838;43.858;25.974;2023-02-04T02:55:17;100560.00;;;5.84;65.92
42169;BME280;27838;43.858;25.974;2023-02-04T02:57:45;100554.94;;;5.91;65.97
42169;BME280;27838;43.858;25.974;2023-02-04T03:00:22;100554.94;;;5.91;66.23
42169;BME280;27838;43.858;25.974;2023-02-04T03:03:05;100541.06;;;5.85;66.17
42169;BME280;27838;43.858;25.974;2023-02-04T03:05:37;100540.91;;;5.78;66.56
42169;BME280;27838;43.858;25.974;2023-02-04T03:08:06;100535.72;;;5.76;66.98
42169;BME280;27838;43.858;25.974;2023-02-04T03:10:34;100525.22;;;5.67;67.26
42169;BME280;27838;43.858;25.974;2023-02-04T03:13:02;100522.59;;;5.65;67.54
42169;BME280;27838;43.858;25.974;2023-02-04T03:15:29;100511.56;;;5.76;67.28
42169;BME280;27838;43.858;25.974;2023-02-04T03:17:57;100510.03;;;5.85;67.15
42169;BME280;27838;43.858;25.974;2023-02-04T03:20:27;100507.34;;;5.81;66.94
42169;BME280;27838;43.858;25.974;2023-02-04T03:22:55;100492.75;;;5.84;66.98
42169;BME280;27838;43.858;25.974;2023-02-04T03:25:26;100494.50;;;5.85;67.39
42169;BME280;27838;43.858;25.974;2023-02-04T03:27:54;100492.75;;;5.84;67.19
42169;BME280;27838;43.858;25.974;2023-02-04T03:30:23;100488.50;;;5.90;67.30
42169;BME280;27838;43.858;25.974;2023-02-04T03:32:50;100484.16;;;5.87;67.61
42169;BME280;27838;43.858;25.974;2023-02-04T03:35:17;100477.03;;;5.72;67.84
42169;BME280;27838;43.858;25.974;2023-02-04T03:37:44;100476.38;;;5.84;67.07
42169;BME280;27838;43.858;25.974;2023-02-04T03:40:11;100477.28;;;5.88;67.70
42169;BME280;27838;43.858;25.974;2023-02-04T03:42:38;100459.25;;;5.94;67.38
42169;BME280;27838;43.858;25.974;2023-02-04T03:45:04;100451.63;;;6.00;66.96
42169;BME280;27838;43.858;25.974;2023-02-04T03:47:31;100460.44;;;6.14;66.55
42169;BME280;27838;43.858;25.974;2023-02-04T03:49:58;100456.03;;;6.07;66.40
42169;BME280;27838;43.858;25.974;2023-02-04T03:52:24;100462.13;;;6.11;66.75
42169;BME280;27838;43.858;25.974;2023-02-04T03:54:51;100443.16;;;6.13;66.48
42169;BME280;27838;43.858;25.974;2023-02-04T03:57:17;100452.72;;;6.17;67.35
42169;BME280;27838;43.858;25.974;2023-02-04T03:59:44;100452.00;;;6.28;66.66
42169;BME280;27838;43.858;25.974;2023-02-04T04:02:10;100451.19;;;6.32;66.66
42169;BME280;27838;43.858;25.974;2023-02-04T04:04:37;100446.78;;;6.24;66.64
42169;BME280;27838;43.858;25.974;2023-02-04T04:07:03;100436.25;;;6.12;66.84
42169;BME280;27838;43.858;25.974;2023-02-04T04:09:30;100438.19;;;6.26;67.32
42169;BME280;27838;43.858;25.974;2023-02-04T04:11:56;100426.13;;;6.31;66.13
42169;BME280;27838;43.858;25.974;2023-02-04T04:14:23;100432.25;;;6.37;66.12
42169;BME280;27838;43.858;25.974;2023-02-04T04:16:49;100421.94;;;6.40;66.25
42169;BME280;27838;43.858;25.974;2023-02-04T04:19:16;100420.22;;;6.38;66.75
42169;BME280;27838;43.858;25.974;2023-02-04T04:21:42;100423.69;;;6.41;66.33
42169;BME280;27838;43.858;25.974;2023-02-04T04:24:09;100421.91;;;6.37;66.38
42169;BME280;27838;43.858;25.974;2023-02-04T04:26:35;100417.69;;;6.44;66.64
42169;BME280;27838;43.858;25.974;2023-02-04T04:29:02;100412.59;;;6.50;65.87
42169;BME280;27838;43.858;25.974;2023-02-04T04:31:28;100406.66;;;6.59;65.64
42169;BME280;27838;43.858;25.974;2023-02-04T04:33:55;100411.00;;;6.65;65.65
42169;BME280;27838;43.858;25.974;2023-02-04T04:36:21;100410.22;;;6.70;66.31
42169;BME280;27838;43.858;25.974;2023-02-04T04:38:48;100403.34;;;6.74;65.04
42169;BME280;27838;43.858;25.974;2023-02-04T04:41:14;100398.25;;;6.85;64.97
42169;BME280;27838;43.858;25.974;2023-02-04T04:43:41;100386.91;;;6.72;65.38
42169;BME280;27838;43.858;25.974;2023-02-04T04:46:07;100407.75;;;6.84;65.29
42169;BME280;27838;43.858;25.974;2023-02-04T04:48:34;100405.25;;;6.93;64.65
42169;BME280;27838;43.858;25.974;2023-02-04T04:51:00;100414.03;;;7.06;65.39
42169;BME280;27838;43.858;25.974;2023-02-04T04:53:27;100409.78;;;7.16;64.51
42169;BME280;27838;43.858;25.974;2023-02-04T04:55:54;100403.78;;;7.18;64.42
42169;BME280;27838;43.858;25.974;2023-02-04T04:58:20;100408.13;;;7.23;63.95
42169;BME280;27838;43.858;25.974;2023-02-04T05:00:47;100409.88;;;7.25;64.07
42169;BME280;27838;43.858;25.974;2023-02-04T05:03:13;100408.97;;;7.18;63.67
42169;BME280;27838;43.858;25.974;2023-02-04T05:05:40;100414.16;;;7.18;63.43
42169;BME280;27838;43.858;25.974;2023-02-04T05:08:07;100414.16;;;7.18;63.98
42169;BME280;27838;43.858;25.974;2023-02-04T05:10:38;100424.50;;;7.22;64.06
42169;BME280;27838;43.858;25.974;2023-02-04T05:13:05;100413.31;;;7.24;63.38
42169;BME280;27838;43.858;25.974;2023-02-04T05:15:31;100413.38;;;7.29;63.91
42169;BME280;27838;43.858;25.974;2023-02-04T05:17:58;100419.47;;;7.37;64.02
42169;BME280;27838;43.858;25.974;2023-02-04T05:20:24;100422.06;;;7.38;63.67
42169;BME280;27838;43.858;25.974;2023-02-04T05:22:51;100416.88;;;7.38;62.91
42169;BME280;27838;43.858;25.974;2023-02-04T05:25:20;100418.63;;;7.40;63.12
42169;BME280;27838;43.858;25.974;2023-02-04T05:27:47;100417.84;;;7.50;63.86
42169;BME280;27838;43.858;25.974;2023-02-04T05:30:14;100403.97;;;7.43;62.68
42169;BME280;27838;43.858;25.974;2023-02-04T05:32:41;100417.88;;;7.51;63.27
42169;BME280;27838;43.858;25.974;2023-02-04T05:35:07;100420.47;;;7.56;63.52
42169;BME280;27838;43.858;25.974;2023-02-04T05:37:34;100417.03;;;7.57;63.38
42169;BME280;27838;43.858;25.974;2023-02-04T05:40:01;100423.94;;;7.58;62.95
42169;BME280;27838;43.858;25.974;2023-02-04T05:42:27;100417.97;;;7.64;62.82
42169;BME280;27838;43.858;25.974;2023-02-04T05:44:54;100408.41;;;7.61;63.07
42169;BME280;27838;43.858;25.974;2023-02-04T05:47:20;100417.97;;;7.68;63.53
42169;BME280;27838;43.858;25.974;2023-02-04T05:49:46;100428.34;;;7.64;63.07
42169;BME280;27838;43.858;25.974;2023-02-04T05:52:13;100427.50;;;7.69;63.53
42169;BME280;27838;43.858;25.974;2023-02-04T05:54:40;100436.19;;;7.74;63.22
42169;BME280;27838;43.858;25.974;2023-02-04T05:57:06;100437.06;;;7.75;63.13
42169;BME280;27838;43.858;25.974;2023-02-04T05:59:33;100431.88;;;7.75;63.68
42169;BME280;27838;43.858;25.974;2023-02-04T06:01:59;100444.00;;;7.79;63.97
42169;BME280;27838;43.858;25.974;2023-02-04T06:04:26;100437.97;;;7.82;64.45
42169;BME280;27838;43.858;25.974;2023-02-04T06:06:52;100434.50;;;7.83;63.93
42169;BME280;27838;43.858;25.974;2023-02-04T06:09:19;100444.06;;;7.88;64.41
42169;BME280;27838;43.858;25.974;2023-02-04T06:11:46;100439.75;;;7.89;64.14
42169;BME280;27838;43.858;25.974;2023-02-04T06:14:12;100441.47;;;7.87;64.15
42169;BME280;27838;43.858;25.974;2023-02-04T06:16:39;100436.31;;;7.90;64.67
42169;BME280;27838;43.858;25.974;2023-02-04T06:19:05;100438.03;;;7.94;63.75
42169;BME280;27838;43.858;25.974;2023-02-04T06:21:32;100443.25;;;7.97;63.60
42169;BME280;27838;43.858;25.974;2023-02-04T06:23:58;100438.97;;;8.01;63.65
42169;BME280;27838;43.858;25.974;2023-02-04T06:26:25;100436.34;;;7.98;63.75
42169;BME280;27838;43.858;25.974;2023-02-04T06:28:51;100444.19;;;8.04;64.10
42169;BME280;27838;43.858;25.974;2023-02-04T06:31:18;100445.06;;;8.07;63.65
42169;BME280;27838;43.858;25.974;2023-02-04T06:33:44;100448.53;;;8.11;63.35
42169;BME280;27838;43.858;25.974;2023-02-04T06:36:11;100445.94;;;8.11;63.92
42169;BME280;27838;43.858;25.974;2023-02-04T06:38:38;100453.75;;;8.19;64.26
42169;BME280;27838;43.858;25.974;2023-02-04T06:41:04;100447.69;;;8.17;63.60
42169;BME280;27838;43.858;25.974;2023-02-04T06:43:31;100448.56;;;8.19;63.71
42169;BME280;27838;43.858;25.974;2023-02-04T06:45:57;100448.56;;;8.19;63.72
42169;BME280;27838;43.858;25.974;2023-02-04T06:48:24;100455.50;;;8.23;63.17
42169;BME280;27838;43.858;25.974;2023-02-04T06:50:50;100452.03;;;8.21;63.82
42169;BME280;27838;43.858;25.974;2023-02-04T06:53:17;100451.16;;;8.19;63.59
42169;BME280;27838;43.858;25.974;2023-02-04T06:55:43;100446.81;;;8.15;63.71
42169;BME280;27838;43.858;25.974;2023-02-04T06:58:10;100448.53;;;8.09;64.08
42169;BME280;27838;43.858;25.974;2023-02-04T07:00:36;100456.28;;;8.06;63.78
42169;BME280;27838;43.858;25.974;2023-02-04T07:03:03;100456.25;;;8.02;64.42
42169;BME280;27838;43.858;25.974;2023-02-04T07:05:31;100449.28;;;7.93;65.17
42169;BME280;27838;43.858;25.974;2023-02-04T07:07:58;100457.03;;;7.91;64.67
42169;BME280;27838;43.858;25.974;2023-02-04T07:10:24;100455.34;;;7.92;65.35
42169;BME280;27838;43.858;25.974;2023-02-04T07:12:51;100462.28;;;7.96;64.54
42169;BME280;27838;43.858;25.974;2023-02-04T07:15:17;100457.13;;;7.99;65.04
42169;BME280;27838;43.858;25.974;2023-02-04T07:17:44;100462.09;;;7.71;64.66
42169;BME280;27838;43.858;25.974;2023-02-04T07:20:11;100462.84;;;7.58;65.59
42169;BME280;27838;43.858;25.974;2023-02-04T07:22:37;100469.75;;;7.51;65.17
42169;BME280;27838;43.858;25.974;2023-02-04T07:25:04;100467.16;;;7.51;65.24
42169;BME280;27838;43.858;25.974;2023-02-04T07:27:30;100472.22;;;7.41;66.07
42169;BME280;27838;43.858;25.974;2023-02-04T07:29:57;100469.50;;;7.27;66.91
42169;BME280;27838;43.858;25.974;2023-02-04T07:32:23;100462.63;;;7.29;67.19
42169;BME280;27838;43.858;25.974;2023-02-04T07:34:52;100467.84;;;7.35;66.78
42169;BME280;27838;43.858;25.974;2023-02-04T07:37:18;100461.88;;;7.42;66.72
42169;BME280;27838;43.858;25.974;2023-02-04T07:39:45;100465.38;;;7.49;66.14
42169;BME280;27838;43.858;25.974;2023-02-04T07:42:11;100472.38;;;7.59;66.15
42169;BME280;27838;43.858;25.974;2023-02-04T07:44:38;100459.41;;;7.57;65.40
42169;BME280;27838;43.858;25.974;2023-02-04T07:47:04;100463.78;;;7.65;65.76
42169;BME280;27838;43.858;25.974;2023-02-04T07:49:31;100467.22;;;7.65;65.11
42169;BME280;27838;43.858;25.974;2023-02-04T07:51:57;100457.75;;;7.67;65.94
42169;BME280;27838;43.858;25.974;2023-02-04T07:54:24;100459.44;;;7.65;65.47
42169;BME280;27838;43.858;25.974;2023-02-04T07:56:50;100450.81;;;7.66;65.97
42169;BME280;27838;43.858;25.974;2023-02-04T07:59:17;100458.63;;;7.69;65.68
42169;BME280;27838;43.858;25.974;2023-02-04T08:01:43;100455.16;;;7.70;65.41
42169;BME280;27838;43.858;25.974;2023-02-04T08:04:12;100456.88;;;7.68;64.79
42169;BME280;27838;43.858;25.974;2023-02-04T08:06:38;100458.66;;;7.72;65.38
42169;BME280;27838;43.858;25.974;2023-02-04T08:09:05;100456.91;;;7.71;64.88
42169;BME280;27838;43.858;25.974;2023-02-04T08:11:31;100456.00;;;7.66;64.89
42169;BME280;27838;43.858;25.974;2023-02-04T08:13:58;100470.75;;;7.72;65.80
42169;BME280;27838;43.858;25.974;2023-02-04T08:16:24;100471.66;;;7.77;65.48
42169;BME280;27838;43.858;25.974;2023-02-04T08:18:51;100469.09;;;7.82;65.80
42169;BME280;27838;43.858;25.974;2023-02-04T08:21:17;100462.19;;;7.84;65.34
42169;BME280;27838;43.858;25.974;2023-02-04T08:23:44;100470.03;;;7.93;65.59
42169;BME280;27838;43.858;25.974;2023-02-04T08:26:11;100465.69;;;7.87;64.73
42169;BME280;27838;43.858;25.974;2023-02-04T08:28:37;100463.09;;;7.89;65.47
42169;BME280;27838;43.858;25.974;2023-02-04T08:31:05;100467.47;;;7.96;65.70
42169;BME280;27838;43.858;25.974;2023-02-04T08:33:35;100465.81;;;8.07;64.69
42169;BME280;27838;43.858;25.974;2023-02-04T08:36:03;100465.00;;;8.16;64.88
42169;BME280;27838;43.858;25.974;2023-02-04T08:38:29;100467.59;;;8.18;64.80
42169;BME280;27838;43.858;25.974;2023-02-04T08:40:56;100464.16;;;8.22;64.31
42169;BME280;27838;43.858;25.974;2023-02-04T08:43:24;100456.38;;;8.22;65.18
42169;BME280;27838;43.858;25.974;2023-02-04T08:45:51;100459.88;;;8.27;64.52
42169;BME280;27838;43.858;25.974;2023-02-04T08:48:18;100462.50;;;8.30;64.83
42169;BME280;27838;43.858;25.974;2023-02-04T08:50:44;100460.78;;;8.34;65.42
42169;BME280;27838;43.858;25.974;2023-02-04T08:53:11;100457.28;;;8.33;65.63
42169;BME280;27838;43.858;25.974;2023-02-04T08:55:37;100463.34;;;8.37;65.04
42169;BME280;27838;43.858;25.974;2023-02-04T08:58:04;100454.72;;;8.36;64.93
42169;BME280;27838;43.858;25.974;2023-02-04T09:00:30;100465.13;;;8.39;64.76
42169;BME280;27838;43.858;25.974;2023-02-04T09:02:57;100465.97;;;8.40;65.04
42169;BME280;27838;43.858;25.974;2023-02-04T09:05:23;100466.84;;;8.39;64.77
42169;BME280;27838;43.858;25.974;2023-02-04T09:07:50;100463.38;;;8.34;64.79
42169;BME280;27838;43.858;25.974;2023-02-04T09:10:16;100465.94;;;8.29;64.52
42169;BME280;27838;43.858;25.974;2023-02-04T09:12:43;100464.19;;;8.28;65.05
42169;BME280;27838;43.858;25.974;2023-02-04T09:15:10;100460.69;;;8.23;64.74
42169;BME280;27838;43.858;25.974;2023-02-04T09:17:37;100462.38;;;8.11;65.29
42169;BME280;27838;43.858;25.974;2023-02-04T09:20:04;100458.00;;;8.09;65.22
42169;BME280;27838;43.858;25.974;2023-02-04T09:22:31;100457.22;;;8.16;65.89
42169;BME280;27838;43.858;25.974;2023-02-04T09:24:58;100458.13;;;8.26;65.27
42169;BME280;27838;43.858;25.974;2023-02-04T09:27:24;100465.09;;;8.36;65.52
42169;BME280;27838;43.858;25.974;2023-02-04T09:29:51;100457.28;;;8.35;64.32
42169;BME280;27838;43.858;25.974;2023-02-04T09:32:17;100461.63;;;8.32;64.17
42169;BME280;27838;43.858;25.974;2023-02-04T09:34:44;100458.09;;;8.20;64.11
42169;BME280;27838;43.858;25.974;2023-02-04T09:37:10;100453.75;;;8.19;64.51
42169;BME280;27838;43.858;25.974;2023-02-04T09:39:37;100462.50;;;8.30;64.76
42169;BME280;27838;43.858;25.974;2023-02-04T09:42:03;100466.84;;;8.37;64.82
42169;BME280;27838;43.858;25.974;2023-02-04T09:44:30;100465.94;;;8.29;63.36
42169;BME280;27838;43.858;25.974;2023-02-04T09:46:58;100458.94;;;8.19;63.56
42169;BME280;27838;43.858;25.974;2023-02-04T09:49:26;100461.59;;;8.25;64.04
42169;BME280;27838;43.858;25.974;2023-02-04T09:51:53;100457.25;;;8.22;63.61
42169;BME280;27838;43.858;25.974;2023-02-04T09:54:21;100451.19;;;8.28;62.95
42169;BME280;27838;43.858;25.974;2023-02-04T09:56:48;100453.78;;;8.28;63.03
42169;BME280;27838;43.858;25.974;2023-02-04T09:59:18;100457.28;;;8.30;63.10
42169;BME280;27838;43.858;25.974;2023-02-04T10:01:50;100457.28;;;8.31;62.31
42169;BME280;27838;43.858;25.974;2023-02-04T10:04:18;100459.06;;;8.39;63.06
42169;BME280;27838;43.858;25.974;2023-02-04T10:06:46;100441.72;;;8.36;63.01
42169;BME280;27838;43.858;25.974;2023-02-04T10:09:13;100461.72;;;8.48;64.20
42169;BME280;27838;43.858;25.974;2023-02-04T10:11:41;100451.38;;;8.59;64.21
42169;BME280;27838;43.858;25.974;2023-02-04T10:14:14;100453.16;;;8.67;63.63
42169;BME280;27838;43.858;25.974;2023-02-04T10:16:42;100454.88;;;8.67;62.74
42169;BME280;27838;43.858;25.974;2023-02-04T10:19:14;100461.00;;;8.81;63.33
42169;BME280;27838;43.858;25.974;2023-02-04T10:21:43;100464.44;;;8.83;62.17
42169;BME280;27838;43.858;25.974;2023-02-04T10:24:21;100459.25;;;8.80;61.29
42169;BME280;27838;43.858;25.974;2023-02-04T10:26:50;100462.72;;;8.79;61.68
42169;BME280;27838;43.858;25.974;2023-02-04T10:29:20;100458.34;;;8.69;61.67
42169;BME280;27838;43.858;25.974;2023-02-04T10:31:49;100459.16;;;8.59;60.67
42169;BME280;27838;43.858;25.974;2023-02-04T10:34:18;100459.19;;;8.62;60.85
42169;BME280;27838;43.858;25.974;2023-02-04T10:36:51;100467.84;;;8.64;60.88
42169;BME280;27838;43.858;25.974;2023-02-04T10:39:20;100472.19;;;8.63;60.06
42169;BME280;27838;43.858;25.974;2023-02-04T10:41:47;100474.78;;;8.62;59.58
42169;BME280;27838;43.858;25.974;2023-02-04T10:44:17;100473.00;;;8.58;59.28
42169;BME280;27838;43.858;25.974;2023-02-04T10:46:45;100462.59;;;8.52;58.99
42169;BME280;27838;43.858;25.974;2023-02-04T10:49:23;100464.34;;;8.49;59.05
42169;BME280;27838;43.858;25.974;2023-02-04T10:51:51;100472.13;;;8.56;59.63
42169;BME280;27838;43.858;25.974;2023-02-04T10:54:27;100470.38;;;8.47;59.17
42169;BME280;27838;43.858;25.974;2023-02-04T10:57:23;100463.47;;;8.54;59.47
42169;BME280;27838;43.858;25.974;2023-02-04T10:59:57;100467.84;;;8.61;59.27
42169;BME280;27838;43.858;25.974;2023-02-04T11:02:31;100464.38;;;8.62;58.53
42169;BME280;27838;43.858;25.974;2023-02-04T11:04:59;100462.63;;;8.55;58.04
42169;BME280;27838;43.858;25.974;2023-02-04T11:07:26;100458.31;;;8.63;58.20
42169;BME280;27838;43.858;25.974;2023-02-04T11:09:53;100452.28;;;8.72;58.41
42169;BME280;27838;43.858;25.974;2023-02-04T11:12:38;100455.78;;;8.81;57.81
42169;BME280;27838;43.858;25.974;2023-02-04T11:15:06;100460.16;;;8.93;57.89
42169;BME280;27838;43.858;25.974;2023-02-04T11:18:06;100453.25;;;9.07;57.54
42169;BME280;27838;43.858;25.974;2023-02-04T11:20:34;100448.94;;;9.20;57.30
42169;BME280;27838;43.858;25.974;2023-02-04T11:23:15;100450.69;;;9.34;57.33
42169;BME280;27838;43.858;25.974;2023-02-04T11:25:42;100453.28;;;9.46;56.53
42169;BME280;27838;43.858;25.974;2023-02-04T11:41:57;100453.28;;;9.61;55.15
42169;BME280;27838;43.858;25.974;2023-02-04T11:44:25;100446.34;;;9.57;55.37
42169;BME280;27838;43.858;25.974;2023-02-04T11:46:53;100439.38;;;9.61;55.65
42169;BME280;27838;43.858;25.974;2023-02-04T11:49:21;100447.19;;;9.64;54.99
42169;BME280;27838;43.858;25.974;2023-02-04T11:51:49;100444.59;;;9.61;54.94
42169;BME280;27838;43.858;25.974;2023-02-04T11:54:16;100436.81;;;9.67;55.28
42169;BME280;27838;43.858;25.974;2023-02-04T11:56:45;100441.13;;;9.82;55.45
42169;BME280;27838;43.858;25.974;2023-02-04T11:59:12;100454.13;;;9.85;54.68
42169;BME280;27838;43.858;25.974;2023-02-04T12:01:41;100447.19;;;9.86;53.67
42169;BME280;27838;43.858;25.974;2023-02-04T12:04:21;100458.47;;;9.91;53.57
42169;BME280;27838;43.858;25.974;2023-02-04T12:07:01;100443.72;;;9.93;53.94
42169;BME280;27838;43.858;25.974;2023-02-04T12:09:29;100448.06;;;9.74;52.79
42169;BME280;27838;43.858;25.974;2023-02-04T12:11:59;100447.22;;;9.66;53.71
42169;BME280;27838;43.858;25.974;2023-02-04T12:14:33;100451.53;;;9.60;53.72
42169;BME280;27838;43.858;25.974;2023-02-04T12:17:15;100455.88;;;9.58;53.79
42169;BME280;27838;43.858;25.974;2023-02-04T12:19:42;100458.50;;;9.60;53.99
42169;BME280;27838;43.858;25.974;2023-02-04T12:22:08;100459.38;;;9.68;53.70
42169;BME280;27838;43.858;25.974;2023-02-04T12:24:35;100458.50;;;9.75;53.87
42169;BME280;27838;43.858;25.974;2023-02-04T12:27:01;100461.97;;;9.68;53.17
42169;BME280;27838;43.858;25.974;2023-02-04T12:29:28;100466.28;;;9.52;54.00
42169;BME280;27838;43.858;25.974;2023-02-04T12:31:54;100461.97;;;9.40;53.49
42169;BME280;27838;43.858;25.974;2023-02-04T12:34:21;100468.91;;;9.38;53.52
42169;BME280;27838;43.858;25.974;2023-02-04T12:36:48;100472.38;;;9.39;54.13
42169;BME280;27838;43.858;25.974;2023-02-04T12:39:15;100470.59;;;9.36;53.32
42169;BME280;27838;43.858;25.974;2023-02-04T12:41:41;100471.47;;;9.40;52.35
42169;BME280;27838;43.858;25.974;2023-02-04T12:44:09;100478.44;;;9.44;52.32
42169;BME280;27838;43.858;25.974;2023-02-04T12:46:35;100488.84;;;9.56;52.82
42169;BME280;27838;43.858;25.974;2023-02-04T12:49:02;100487.97;;;9.53;52.47
42169;BME280;27838;43.858;25.974;2023-02-04T12:51:28;100501.00;;;9.51;52.73
42169;BME280;27838;43.858;25.974;2023-02-04T12:53:55;100499.25;;;9.47;52.73
42169;BME280;27838;43.858;25.974;2023-02-04T12:56:21;100492.31;;;9.46;52.27
42169;BME280;27838;43.858;25.974;2023-02-04T12:58:48;100498.38;;;9.47;52.67
42169;BME280;27838;43.858;25.974;2023-02-04T13:01:14;100499.25;;;9.53;52.31
42169;BME280;27838;43.858;25.974;2023-02-04T13:03:41;100501.84;;;9.53;52.35
42169;BME280;27838;43.858;25.974;2023-02-04T13:06:07;100501.84;;;9.53;52.62